sensor_id;sensor_type;location;lat;lon;timestamp;P1;durP1;ratioP1;P2;durP2;ratioP2
65691;SDS011;52411;52.716;6.696;2023-06-22T00:00:44;30.17;;;22.52;;
65691;SDS011;52411;52.716;6.696;2023-06-22T00:03:09;30.30;;;22.70;;
65691;SDS011;52411;52.716;6.696;2023-06-22T00:05:35;21.42;;;17.90;;
65691;SDS011;52411;52.716;6.696;2023-06-22T00:08:04;36.47;;;22.48;;
65691;SDS011;52411;52.716;6.696;2023-06-22T00:10:30;25.23;;;21.15;;
65691;SDS011;52411;52.716;6.696;2023-06-22T00:12:55;29.10;;;24.05;;
65691;SDS011;52411;52.716;6.696;2023-06-22T00:15:21;29.63;;;21.40;;
65691;SDS011;52411;52.716;6.696;2023-06-22T00:17:47;27.48;;;21.55;;
65691;SDS011;52411;52.716;6.696;2023-06-22T00:20:12;27.33;;;18.25;;
65691;SDS011;52411;52.716;6.696;2023-06-22T00:22:39;35.45;;;15.70;;
65691;SDS011;52411;52.716;6.696;2023-06-22T00:25:06;17.00;;;15.20;;
65691;SDS011;52411;52.716;6.696;2023-06-22T00:27:32;23.92;;;19.52;;
65691;SDS011;52411;52.716;6.696;2023-06-22T00:29:57;25.08;;;20.83;;
65691;SDS011;52411;52.716;6.696;2023-06-22T00:32:23;27.30;;;21.20;;
65691;SDS011;52411;52.716;6.696;2023-06-22T00:34:48;30.60;;;24.15;;
65691;SDS011;52411;52.716;6.696;2023-06-22T00:37:15;30.23;;;22.27;;
65691;SDS011;52411;52.716;6.696;2023-06-22T00:39:42;27.27;;;21.90;;
65691;SDS011;52411;52.716;6.696;2023-06-22T00:42:08;25.42;;;21.60;;
65691;SDS011;52411;52.716;6.696;2023-06-22T00:44:34;26.45;;;20.85;;
65691;SDS011;52411;52.716;6.696;2023-06-22T00:47:01;25.55;;;21.73;;
65691;SDS011;52411;52.716;6.696;2023-06-22T00:49:28;28.75;;;23.60;;
65691;SDS011;52411;52.716;6.696;2023-06-22T00:51:54;33.63;;;25.88;;
65691;SDS011;52411;52.716;6.696;2023-06-22T00:54:21;67.65;;;23.48;;
65691;SDS011;52411;52.716;6.696;2023-06-22T00:56:58;27.10;;;22.95;;
65691;SDS011;52411;52.716;6.696;2023-06-22T00:59:24;29.00;;;23.60;;
65691;SDS011;52411;52.716;6.696;2023-06-22T01:01:51;36.17;;;26.17;;
65691;SDS011;52411;52.716;6.696;2023-06-22T01:04:17;30.98;;;24.65;;
65691;SDS011;52411;52.716;6.696;2023-06-22T01:06:54;30.60;;;23.60;;
65691;SDS011;52411;52.716;6.696;2023-06-22T01:09:31;31.67;;;23.02;;
65691;SDS011;52411;52.716;6.696;2023-06-22T01:12:01;31.95;;;24.42;;
65691;SDS011;52411;52.716;6.696;2023-06-22T01:14:35;28.63;;;22.55;;
65691;SDS011;52411;52.716;6.696;2023-06-22T01:17:07;32.60;;;24.80;;
65691;SDS011;52411;52.716;6.696;2023-06-22T01:19:38;32.67;;;27.33;;
65691;SDS011;52411;52.716;6.696;2023-06-22T01:22:09;32.72;;;25.42;;
65691;SDS011;52411;52.716;6.696;2023-06-22T01:27:26;33.15;;;26.38;;
65691;SDS011;52411;52.716;6.696;2023-06-22T01:29:55;38.88;;;30.00;;
65691;SDS011;52411;52.716;6.696;2023-06-22T01:32:30;34.20;;;28.00;;
65691;SDS011;52411;52.716;6.696;2023-06-22T01:34:58;37.78;;;30.52;;
65691;SDS011;52411;52.716;6.696;2023-06-22T01:37:26;41.83;;;29.67;;
65691;SDS011;52411;52.716;6.696;2023-06-22T01:39:53;42.65;;;29.23;;
65691;SDS011;52411;52.716;6.696;2023-06-22T01:42:21;44.25;;;31.45;;
65691;SDS011;52411;52.716;6.696;2023-06-22T01:44:48;46.95;;;32.47;;
65691;SDS011;52411;52.716;6.696;2023-06-22T01:47:15;44.22;;;32.05;;
65691;SDS011;52411;52.716;6.696;2023-06-22T01:49:41;56.30;;;36.20;;
65691;SDS011;52411;52.716;6.696;2023-06-22T01:52:07;48.50;;;35.92;;
65691;SDS011;52411;52.716;6.696;2023-06-22T01:54:33;48.25;;;34.58;;
65691;SDS011;52411;52.716;6.696;2023-06-22T01:56:58;45.22;;;32.75;;
65691;SDS011;52411;52.716;6.696;2023-06-22T01:59:38;42.13;;;32.00;;
65691;SDS011;52411;52.716;6.696;2023-06-22T02:02:18;49.00;;;33.55;;
65691;SDS011;52411;52.716;6.696;2023-06-22T02:04:51;47.40;;;32.30;;
65691;SDS011;52411;52.716;6.696;2023-06-22T02:07:22;45.42;;;33.35;;
65691;SDS011;52411;52.716;6.696;2023-06-22T02:09:48;48.53;;;34.15;;
65691;SDS011;52411;52.716;6.696;2023-06-22T02:12:18;47.67;;;34.42;;
65691;SDS011;52411;52.716;6.696;2023-06-22T02:14:46;52.70;;;35.67;;
65691;SDS011;52411;52.716;6.696;2023-06-22T02:17:12;46.60;;;34.10;;
65691;SDS011;52411;52.716;6.696;2023-06-22T02:19:42;49.05;;;35.50;;
65691;SDS011;52411;52.716;6.696;2023-06-22T02:22:08;51.15;;;35.30;;
65691;SDS011;52411;52.716;6.696;2023-06-22T02:24:34;47.00;;;34.45;;
65691;SDS011;52411;52.716;6.696;2023-06-22T02:26:59;47.25;;;34.40;;
65691;SDS011;52411;52.716;6.696;2023-06-22T02:29:27;49.42;;;35.10;;
65691;SDS011;52411;52.716;6.696;2023-06-22T02:31:53;53.95;;;36.75;;
65691;SDS011;52411;52.716;6.696;2023-06-22T02:34:19;60.15;;;38.88;;
65691;SDS011;52411;52.716;6.696;2023-06-22T02:36:46;59.13;;;39.15;;
65691;SDS011;52411;52.716;6.696;2023-06-22T02:39:19;57.28;;;38.00;;
65691;SDS011;52411;52.716;6.696;2023-06-22T02:44:13;55.70;;;36.92;;
65691;SDS011;52411;52.716;6.696;2023-06-22T02:46:39;49.20;;;34.67;;
65691;SDS011;52411;52.716;6.696;2023-06-22T02:49:04;49.08;;;34.67;;
65691;SDS011;52411;52.716;6.696;2023-06-22T02:51:32;42.17;;;30.83;;
65691;SDS011;52411;52.716;6.696;2023-06-22T02:54:01;45.58;;;31.77;;
65691;SDS011;52411;52.716;6.696;2023-06-22T02:56:28;47.33;;;34.05;;
65691;SDS011;52411;52.716;6.696;2023-06-22T02:58:55;51.70;;;36.50;;
65691;SDS011;52411;52.716;6.696;2023-06-22T03:01:25;58.40;;;39.63;;
65691;SDS011;52411;52.716;6.696;2023-06-22T03:03:55;58.00;;;39.50;;
65691;SDS011;52411;52.716;6.696;2023-06-22T03:06:21;52.95;;;37.50;;
65691;SDS011;52411;52.716;6.696;2023-06-22T03:08:48;51.88;;;37.78;;
65691;SDS011;52411;52.716;6.696;2023-06-22T03:11:14;57.55;;;38.88;;
65691;SDS011;52411;52.716;6.696;2023-06-22T03:13:40;61.45;;;39.55;;
65691;SDS011;52411;52.716;6.696;2023-06-22T03:16:06;60.15;;;39.65;;
65691;SDS011;52411;52.716;6.696;2023-06-22T03:18:31;53.47;;;36.70;;
65691;SDS011;52411;52.716;6.696;2023-06-22T03:20:57;51.17;;;34.67;;
65691;SDS011;52411;52.716;6.696;2023-06-22T03:23:23;45.45;;;31.85;;
65691;SDS011;52411;52.716;6.696;2023-06-22T03:25:49;38.28;;;29.42;;
65691;SDS011;52411;52.716;6.696;2023-06-22T03:28:14;43.17;;;28.40;;
65691;SDS011;52411;52.716;6.696;2023-06-22T03:30:40;181.05;;;29.63;;
65691;SDS011;52411;52.716;6.696;2023-06-22T03:33:06;40.28;;;29.85;;
65691;SDS011;52411;52.716;6.696;2023-06-22T03:35:31;52.33;;;34.58;;
65691;SDS011;52411;52.716;6.696;2023-06-22T03:37:57;47.13;;;33.50;;
65691;SDS011;52411;52.716;6.696;2023-06-22T03:40:22;50.65;;;36.30;;
65691;SDS011;52411;52.716;6.696;2023-06-22T03:42:48;181.65;;;30.67;;
65691;SDS011;52411;52.716;6.696;2023-06-22T03:45:13;232.98;;;30.63;;
65691;SDS011;52411;52.716;6.696;2023-06-22T03:47:39;217.55;;;30.75;;
65691;SDS011;52411;52.716;6.696;2023-06-22T03:50:05;49.53;;;26.60;;
65691;SDS011;52411;52.716;6.696;2023-06-22T03:52:31;206.63;;;29.17;;
65691;SDS011;52411;52.716;6.696;2023-06-22T03:54:57;367.55;;;30.30;;
65691;SDS011;52411;52.716;6.696;2023-06-22T03:57:23;37.97;;;26.45;;
65691;SDS011;52411;52.716;6.696;2023-06-22T03:59:48;56.47;;;31.40;;
65691;SDS011;52411;52.716;6.696;2023-06-22T04:02:14;53.50;;;36.25;;
65691;SDS011;52411;52.716;6.696;2023-06-22T04:04:40;55.90;;;38.17;;
65691;SDS011;52411;52.716;6.696;2023-06-22T04:07:05;56.15;;;37.70;;
65691;SDS011;52411;52.716;6.696;2023-06-22T04:09:31;54.08;;;36.85;;
65691;SDS011;52411;52.716;6.696;2023-06-22T04:11:57;57.65;;;37.80;;
65691;SDS011;52411;52.716;6.696;2023-06-22T04:14:22;51.42;;;35.42;;
65691;SDS011;52411;52.716;6.696;2023-06-22T04:16:48;57.20;;;39.65;;
65691;SDS011;52411;52.716;6.696;2023-06-22T04:19:13;59.55;;;40.30;;
65691;SDS011;52411;52.716;6.696;2023-06-22T04:21:44;62.38;;;40.50;;
65691;SDS011;52411;52.716;6.696;2023-06-22T04:24:10;58.90;;;37.40;;
65691;SDS011;52411;52.716;6.696;2023-06-22T04:26:36;52.38;;;35.67;;
65691;SDS011;52411;52.716;6.696;2023-06-22T04:29:03;51.10;;;35.92;;
65691;SDS011;52411;52.716;6.696;2023-06-22T04:31:33;49.97;;;34.50;;
65691;SDS011;52411;52.716;6.696;2023-06-22T04:34:01;55.30;;;36.53;;
65691;SDS011;52411;52.716;6.696;2023-06-22T04:36:33;56.72;;;38.50;;
65691;SDS011;52411;52.716;6.696;2023-06-22T04:39:03;58.20;;;40.75;;
65691;SDS011;52411;52.716;6.696;2023-06-22T04:41:29;59.17;;;40.58;;
65691;SDS011;52411;52.716;6.696;2023-06-22T04:44:07;60.53;;;39.85;;
65691;SDS011;52411;52.716;6.696;2023-06-22T04:46:33;62.97;;;41.63;;
65691;SDS011;52411;52.716;6.696;2023-06-22T04:49:02;63.10;;;41.03;;
65691;SDS011;52411;52.716;6.696;2023-06-22T04:51:40;64.97;;;41.08;;
65691;SDS011;52411;52.716;6.696;2023-06-22T04:54:07;66.80;;;43.80;;
65691;SDS011;52411;52.716;6.696;2023-06-22T04:56:33;67.80;;;44.05;;
65691;SDS011;52411;52.716;6.696;2023-06-22T04:58:59;64.97;;;42.17;;
65691;SDS011;52411;52.716;6.696;2023-06-22T05:01:25;64.88;;;42.22;;
65691;SDS011;52411;52.716;6.696;2023-06-22T05:03:51;66.63;;;43.33;;
65691;SDS011;52411;52.716;6.696;2023-06-22T05:06:26;65.50;;;42.20;;
65691;SDS011;52411;52.716;6.696;2023-06-22T05:08:53;65.03;;;43.03;;
65691;SDS011;52411;52.716;6.696;2023-06-22T05:11:26;72.68;;;44.03;;
65691;SDS011;52411;52.716;6.696;2023-06-22T05:13:52;67.88;;;44.47;;
65691;SDS011;52411;52.716;6.696;2023-06-22T05:16:18;65.68;;;42.58;;
65691;SDS011;52411;52.716;6.696;2023-06-22T05:18:48;67.85;;;43.22;;
65691;SDS011;52411;52.716;6.696;2023-06-22T05:21:21;71.72;;;44.67;;
65691;SDS011;52411;52.716;6.696;2023-06-22T05:23:47;72.72;;;45.40;;
65691;SDS011;52411;52.716;6.696;2023-06-22T05:26:13;68.90;;;42.72;;
65691;SDS011;52411;52.716;6.696;2023-06-22T05:28:39;63.92;;;42.35;;
65691;SDS011;52411;52.716;6.696;2023-06-22T05:31:04;68.88;;;41.83;;
65691;SDS011;52411;52.716;6.696;2023-06-22T05:33:30;66.47;;;42.05;;
65691;SDS011;52411;52.716;6.696;2023-06-22T05:35:56;61.58;;;40.13;;
65691;SDS011;52411;52.716;6.696;2023-06-22T05:38:21;63.20;;;39.55;;
65691;SDS011;52411;52.716;6.696;2023-06-22T05:40:47;61.10;;;40.28;;
65691;SDS011;52411;52.716;6.696;2023-06-22T05:43:12;58.22;;;39.30;;
65691;SDS011;52411;52.716;6.696;2023-06-22T05:45:38;57.30;;;38.75;;
65691;SDS011;52411;52.716;6.696;2023-06-22T05:48:04;59.30;;;38.83;;
65691;SDS011;52411;52.716;6.696;2023-06-22T05:50:30;56.28;;;37.92;;
65691;SDS011;52411;52.716;6.696;2023-06-22T05:52:55;56.75;;;39.00;;
65691;SDS011;52411;52.716;6.696;2023-06-22T05:55:21;57.17;;;39.58;;
65691;SDS011;52411;52.716;6.696;2023-06-22T05:57:46;55.60;;;38.33;;
65691;SDS011;52411;52.716;6.696;2023-06-22T06:00:12;58.15;;;38.28;;
65691;SDS011;52411;52.716;6.696;2023-06-22T06:02:39;54.65;;;37.83;;
65691;SDS011;52411;52.716;6.696;2023-06-22T06:05:09;54.47;;;37.30;;
65691;SDS011;52411;52.716;6.696;2023-06-22T06:07:36;49.65;;;36.05;;
65691;SDS011;52411;52.716;6.696;2023-06-22T06:10:02;52.20;;;35.72;;
65691;SDS011;52411;52.716;6.696;2023-06-22T06:12:29;50.58;;;35.95;;
65691;SDS011;52411;52.716;6.696;2023-06-22T06:14:55;53.03;;;35.90;;
65691;SDS011;52411;52.716;6.696;2023-06-22T06:17:21;49.33;;;36.38;;
65691;SDS011;52411;52.716;6.696;2023-06-22T06:19:47;49.65;;;35.83;;
65691;SDS011;52411;52.716;6.696;2023-06-22T06:22:12;50.38;;;35.20;;
65691;SDS011;52411;52.716;6.696;2023-06-22T06:24:38;49.65;;;36.40;;
65691;SDS011;52411;52.716;6.696;2023-06-22T06:27:03;45.92;;;33.97;;
65691;SDS011;52411;52.716;6.696;2023-06-22T06:29:30;47.25;;;33.42;;
65691;SDS011;52411;52.716;6.696;2023-06-22T06:31:56;45.30;;;32.33;;
65691;SDS011;52411;52.716;6.696;2023-06-22T06:34:22;42.35;;;30.55;;
65691;SDS011;52411;52.716;6.696;2023-06-22T06:36:47;38.88;;;28.88;;
65691;SDS011;52411;52.716;6.696;2023-06-22T06:39:13;38.22;;;27.52;;
65691;SDS011;52411;52.716;6.696;2023-06-22T06:41:39;35.92;;;26.83;;
65691;SDS011;52411;52.716;6.696;2023-06-22T06:44:04;34.65;;;26.95;;
65691;SDS011;52411;52.716;6.696;2023-06-22T06:46:30;32.63;;;25.95;;
65691;SDS011;52411;52.716;6.696;2023-06-22T06:48:55;34.45;;;26.33;;
65691;SDS011;52411;52.716;6.696;2023-06-22T06:51:21;33.50;;;26.00;;
65691;SDS011;52411;52.716;6.696;2023-06-22T06:53:46;33.08;;;26.02;;
65691;SDS011;52411;52.716;6.696;2023-06-22T06:56:12;34.88;;;25.55;;
65691;SDS011;52411;52.716;6.696;2023-06-22T06:58:40;32.00;;;25.75;;
65691;SDS011;52411;52.716;6.696;2023-06-22T07:01:07;34.80;;;25.77;;
65691;SDS011;52411;52.716;6.696;2023-06-22T07:03:33;33.65;;;25.88;;
65691;SDS011;52411;52.716;6.696;2023-06-22T07:05:59;31.90;;;24.75;;
65691;SDS011;52411;52.716;6.696;2023-06-22T07:08:25;32.45;;;24.50;;
65691;SDS011;52411;52.716;6.696;2023-06-22T07:10:51;31.80;;;24.38;;
65691;SDS011;52411;52.716;6.696;2023-06-22T07:13:17;29.80;;;24.50;;
65691;SDS011;52411;52.716;6.696;2023-06-22T07:15:43;30.55;;;23.83;;
65691;SDS011;52411;52.716;6.696;2023-06-22T07:18:09;30.90;;;23.02;;
65691;SDS011;52411;52.716;6.696;2023-06-22T07:20:34;29.58;;;22.70;;
65691;SDS011;52411;52.716;6.696;2023-06-22T07:23:00;28.73;;;21.88;;
65691;SDS011;52411;52.716;6.696;2023-06-22T07:25:26;25.27;;;20.73;;
65691;SDS011;52411;52.716;6.696;2023-06-22T07:28:01;26.05;;;20.15;;
65691;SDS011;52411;52.716;6.696;2023-06-22T07:30:28;25.60;;;19.55;;
65691;SDS011;52411;52.716;6.696;2023-06-22T07:32:55;24.98;;;18.95;;
65691;SDS011;52411;52.716;6.696;2023-06-22T07:35:21;28.35;;;20.83;;
65691;SDS011;52411;52.716;6.696;2023-06-22T07:37:47;25.48;;;19.05;;
65691;SDS011;52411;52.716;6.696;2023-06-22T07:40:12;25.45;;;19.35;;
65691;SDS011;52411;52.716;6.696;2023-06-22T07:42:38;25.70;;;19.38;;
65691;SDS011;52411;52.716;6.696;2023-06-22T07:45:04;24.48;;;19.45;;
65691;SDS011;52411;52.716;6.696;2023-06-22T07:47:31;23.55;;;18.70;;
65691;SDS011;52411;52.716;6.696;2023-06-22T07:50:00;24.88;;;17.73;;
65691;SDS011;52411;52.716;6.696;2023-06-22T07:52:26;24.58;;;19.00;;
65691;SDS011;52411;52.716;6.696;2023-06-22T07:54:53;24.10;;;17.70;;
65691;SDS011;52411;52.716;6.696;2023-06-22T07:57:19;23.25;;;18.15;;
65691;SDS011;52411;52.716;6.696;2023-06-22T07:59:45;22.65;;;17.80;;
65691;SDS011;52411;52.716;6.696;2023-06-22T08:02:11;23.58;;;17.90;;
65691;SDS011;52411;52.716;6.696;2023-06-22T08:04:37;21.73;;;17.70;;
65691;SDS011;52411;52.716;6.696;2023-06-22T08:07:03;26.42;;;17.75;;
65691;SDS011;52411;52.716;6.696;2023-06-22T08:09:30;20.67;;;15.40;;
65691;SDS011;52411;52.716;6.696;2023-06-22T08:11:57;22.48;;;15.73;;
65691;SDS011;52411;52.716;6.696;2023-06-22T08:14:26;19.85;;;15.90;;
65691;SDS011;52411;52.716;6.696;2023-06-22T08:16:52;19.05;;;15.27;;
65691;SDS011;52411;52.716;6.696;2023-06-22T08:19:17;21.30;;;15.73;;
65691;SDS011;52411;52.716;6.696;2023-06-22T08:21:43;22.25;;;16.50;;
65691;SDS011;52411;52.716;6.696;2023-06-22T08:24:09;25.38;;;16.83;;
65691;SDS011;52411;52.716;6.696;2023-06-22T08:26:35;20.70;;;15.43;;
65691;SDS011;52411;52.716;6.696;2023-06-22T08:29:02;20.15;;;15.60;;
65691;SDS011;52411;52.716;6.696;2023-06-22T08:31:28;21.77;;;16.33;;
65691;SDS011;52411;52.716;6.696;2023-06-22T08:33:55;21.65;;;16.77;;
65691;SDS011;52411;52.716;6.696;2023-06-22T08:36:21;21.27;;;16.23;;
65691;SDS011;52411;52.716;6.696;2023-06-22T08:38:46;18.52;;;14.95;;
65691;SDS011;52411;52.716;6.696;2023-06-22T08:41:16;21.27;;;16.30;;
65691;SDS011;52411;52.716;6.696;2023-06-22T08:43:42;22.75;;;15.85;;
65691;SDS011;52411;52.716;6.696;2023-06-22T08:46:09;20.92;;;15.90;;
65691;SDS011;52411;52.716;6.696;2023-06-22T08:48:35;24.65;;;14.85;;
65691;SDS011;52411;52.716;6.696;2023-06-22T08:51:01;18.00;;;14.23;;
65691;SDS011;52411;52.716;6.696;2023-06-22T08:53:28;20.95;;;15.70;;
65691;SDS011;52411;52.716;6.696;2023-06-22T08:55:54;20.80;;;15.68;;
65691;SDS011;52411;52.716;6.696;2023-06-22T08:58:19;20.83;;;16.42;;
65691;SDS011;52411;52.716;6.696;2023-06-22T09:00:46;18.45;;;14.82;;
65691;SDS011;52411;52.716;6.696;2023-06-22T09:03:12;19.25;;;15.43;;
65691;SDS011;52411;52.716;6.696;2023-06-22T09:05:38;21.05;;;15.55;;
65691;SDS011;52411;52.716;6.696;2023-06-22T09:08:04;21.30;;;15.73;;
65691;SDS011;52411;52.716;6.696;2023-06-22T09:10:30;19.40;;;14.82;;
65691;SDS011;52411;52.716;6.696;2023-06-22T09:12:56;22.67;;;15.38;;
65691;SDS011;52411;52.716;6.696;2023-06-22T09:15:22;20.45;;;15.05;;
65691;SDS011;52411;52.716;6.696;2023-06-22T09:17:48;21.88;;;14.85;;
65691;SDS011;52411;52.716;6.696;2023-06-22T09:20:13;20.35;;;14.68;;
65691;SDS011;52411;52.716;6.696;2023-06-22T09:22:39;17.98;;;14.85;;
65691;SDS011;52411;52.716;6.696;2023-06-22T09:25:05;18.30;;;13.88;;
65691;SDS011;52411;52.716;6.696;2023-06-22T09:27:31;17.92;;;14.50;;
65691;SDS011;52411;52.716;6.696;2023-06-22T09:29:56;16.95;;;14.07;;
65691;SDS011;52411;52.716;6.696;2023-06-22T09:32:23;17.40;;;14.52;;
65691;SDS011;52411;52.716;6.696;2023-06-22T09:34:50;16.38;;;14.18;;
65691;SDS011;52411;52.716;6.696;2023-06-22T09:37:16;18.30;;;14.48;;
65691;SDS011;52411;52.716;6.696;2023-06-22T09:39:42;19.30;;;14.65;;
65691;SDS011;52411;52.716;6.696;2023-06-22T09:42:07;18.98;;;14.32;;
65691;SDS011;52411;52.716;6.696;2023-06-22T09:44:33;18.55;;;14.93;;
65691;SDS011;52411;52.716;6.696;2023-06-22T09:46:59;17.30;;;14.98;;
65691;SDS011;52411;52.716;6.696;2023-06-22T09:49:25;17.13;;;14.13;;
65691;SDS011;52411;52.716;6.696;2023-06-22T09:51:51;18.27;;;14.32;;
65691;SDS011;52411;52.716;6.696;2023-06-22T09:54:17;18.95;;;15.48;;
65691;SDS011;52411;52.716;6.696;2023-06-22T09:56:43;18.23;;;13.52;;
65691;SDS011;52411;52.716;6.696;2023-06-22T09:59:09;18.30;;;14.15;;
65691;SDS011;52411;52.716;6.696;2023-06-22T10:01:34;17.20;;;12.88;;
65691;SDS011;52411;52.716;6.696;2023-06-22T10:04:01;16.15;;;13.52;;
65691;SDS011;52411;52.716;6.696;2023-06-22T10:06:27;16.20;;;13.60;;
65691;SDS011;52411;52.716;6.696;2023-06-22T10:08:53;15.95;;;13.73;;
65691;SDS011;52411;52.716;6.696;2023-06-22T10:11:18;18.80;;;15.30;;
65691;SDS011;52411;52.716;6.696;2023-06-22T10:13:44;16.63;;;13.77;;
65691;SDS011;52411;52.716;6.696;2023-06-22T10:16:10;18.35;;;14.02;;
65691;SDS011;52411;52.716;6.696;2023-06-22T10:18:35;16.52;;;14.60;;
65691;SDS011;52411;52.716;6.696;2023-06-22T10:23:36;16.02;;;12.95;;
65691;SDS011;52411;52.716;6.696;2023-06-22T10:26:02;17.38;;;11.93;;
65691;SDS011;52411;52.716;6.696;2023-06-22T10:30:55;15.55;;;12.77;;
65691;SDS011;52411;52.716;6.696;2023-06-22T10:33:21;12.95;;;11.45;;
65691;SDS011;52411;52.716;6.696;2023-06-22T10:35:47;14.57;;;10.90;;
65691;SDS011;52411;52.716;6.696;2023-06-22T10:38:12;15.15;;;11.95;;
65691;SDS011;52411;52.716;6.696;2023-06-22T10:40:38;17.05;;;11.52;;
65691;SDS011;52411;52.716;6.696;2023-06-22T10:43:04;14.40;;;10.35;;
65691;SDS011;52411;52.716;6.696;2023-06-22T10:54:22;14.93;;;12.20;;
65691;SDS011;52411;52.716;6.696;2023-06-22T10:56:48;11.27;;;10.05;;
65691;SDS011;52411;52.716;6.696;2023-06-22T10:59:14;13.23;;;10.32;;
65691;SDS011;52411;52.716;6.696;2023-06-22T11:01:44;15.63;;;11.23;;
65691;SDS011;52411;52.716;6.696;2023-06-22T11:20:23;11.80;;;9.38;;
65691;SDS011;52411;52.716;6.696;2023-06-22T11:25:24;10.70;;;8.85;;
65691;SDS011;52411;52.716;6.696;2023-06-22T11:27:49;9.68;;;7.63;;
65691;SDS011;52411;52.716;6.696;2023-06-22T11:38:02;12.15;;;9.15;;
65691;SDS011;52411;52.716;6.696;2023-06-22T11:40:29;9.05;;;7.68;;
65691;SDS011;52411;52.716;6.696;2023-06-22T12:01:45;9.07;;;7.80;;
65691;SDS011;52411;52.716;6.696;2023-06-22T12:04:11;9.05;;;8.10;;
65691;SDS011;52411;52.716;6.696;2023-06-22T12:06:37;9.25;;;8.10;;
65691;SDS011;52411;52.716;6.696;2023-06-22T12:09:06;8.20;;;7.32;;
65691;SDS011;52411;52.716;6.696;2023-06-22T12:11:31;10.40;;;7.18;;
65691;SDS011;52411;52.716;6.696;2023-06-22T12:13:57;9.90;;;6.43;;
65691;SDS011;52411;52.716;6.696;2023-06-22T12:16:26;9.50;;;6.45;;
65691;SDS011;52411;52.716;6.696;2023-06-22T12:18:52;8.48;;;6.80;;
65691;SDS011;52411;52.716;6.696;2023-06-22T12:21:18;11.25;;;7.03;;
65691;SDS011;52411;52.716;6.696;2023-06-22T12:23:44;11.32;;;7.57;;
65691;SDS011;52411;52.716;6.696;2023-06-22T12:26:10;9.13;;;7.32;;
65691;SDS011;52411;52.716;6.696;2023-06-22T12:28:35;8.88;;;6.65;;
65691;SDS011;52411;52.716;6.696;2023-06-22T12:31:01;9.13;;;7.63;;
65691;SDS011;52411;52.716;6.696;2023-06-22T12:33:26;10.10;;;7.53;;
65691;SDS011;52411;52.716;6.696;2023-06-22T12:35:52;13.98;;;8.30;;
65691;SDS011;52411;52.716;6.696;2023-06-22T12:38:17;10.75;;;8.98;;
65691;SDS011;52411;52.716;6.696;2023-06-22T12:40:43;12.57;;;10.23;;
65691;SDS011;52411;52.716;6.696;2023-06-22T12:43:09;12.98;;;10.38;;
65691;SDS011;52411;52.716;6.696;2023-06-22T12:45:34;10.00;;;8.30;;
65691;SDS011;52411;52.716;6.696;2023-06-22T12:48:00;13.90;;;9.20;;
65691;SDS011;52411;52.716;6.696;2023-06-22T12:50:26;10.88;;;9.10;;
65691;SDS011;52411;52.716;6.696;2023-06-22T12:52:52;10.70;;;9.10;;
65691;SDS011;52411;52.716;6.696;2023-06-22T12:55:17;11.43;;;8.68;;
65691;SDS011;52411;52.716;6.696;2023-06-22T12:57:43;9.57;;;8.25;;
65691;SDS011;52411;52.716;6.696;2023-06-22T13:00:09;10.70;;;7.57;;
65691;SDS011;52411;52.716;6.696;2023-06-22T13:02:35;7.85;;;7.05;;
65691;SDS011;52411;52.716;6.696;2023-06-22T13:05:02;8.20;;;6.88;;
65691;SDS011;52411;52.716;6.696;2023-06-22T13:07:30;12.27;;;7.05;;
65691;SDS011;52411;52.716;6.696;2023-06-22T13:09:55;8.45;;;6.65;;
65691;SDS011;52411;52.716;6.696;2023-06-22T13:12:21;9.50;;;7.25;;
65691;SDS011;52411;52.716;6.696;2023-06-22T13:14:47;8.65;;;7.07;;
65691;SDS011;52411;52.716;6.696;2023-06-22T13:17:13;11.15;;;7.82;;
65691;SDS011;52411;52.716;6.696;2023-06-22T13:19:39;11.40;;;7.47;;
65691;SDS011;52411;52.716;6.696;2023-06-22T13:22:09;14.23;;;7.70;;
65691;SDS011;52411;52.716;6.696;2023-06-22T13:24:52;9.75;;;6.68;;
65691;SDS011;52411;52.716;6.696;2023-06-22T13:27:18;11.30;;;7.50;;
65691;SDS011;52411;52.716;6.696;2023-06-22T13:29:43;9.32;;;7.75;;
65691;SDS011;52411;52.716;6.696;2023-06-22T13:32:09;8.45;;;7.55;;
65691;SDS011;52411;52.716;6.696;2023-06-22T13:34:34;9.60;;;8.60;;
65691;SDS011;52411;52.716;6.696;2023-06-22T13:37:00;8.52;;;7.60;;
65691;SDS011;52411;52.716;6.696;2023-06-22T13:39:25;10.20;;;7.38;;
65691;SDS011;52411;52.716;6.696;2023-06-22T13:41:51;8.55;;;7.00;;
65691;SDS011;52411;52.716;6.696;2023-06-22T13:44:17;10.82;;;7.65;;
65691;SDS011;52411;52.716;6.696;2023-06-22T13:46:42;8.68;;;6.78;;
65691;SDS011;52411;52.716;6.696;2023-06-22T13:49:08;11.85;;;7.50;;
65691;SDS011;52411;52.716;6.696;2023-06-22T13:51:34;10.70;;;7.35;;
65691;SDS011;52411;52.716;6.696;2023-06-22T13:54:00;10.10;;;7.32;;
65691;SDS011;52411;52.716;6.696;2023-06-22T13:56:25;12.45;;;7.95;;
65691;SDS011;52411;52.716;6.696;2023-06-22T13:58:51;12.73;;;7.63;;
65691;SDS011;52411;52.716;6.696;2023-06-22T14:01:17;9.07;;;7.28;;
65691;SDS011;52411;52.716;6.696;2023-06-22T14:03:42;9.38;;;8.13;;
65691;SDS011;52411;52.716;6.696;2023-06-22T14:06:10;13.27;;;8.57;;
65691;SDS011;52411;52.716;6.696;2023-06-22T14:08:36;10.77;;;8.18;;
65691;SDS011;52411;52.716;6.696;2023-06-22T14:11:02;11.77;;;8.57;;
65691;SDS011;52411;52.716;6.696;2023-06-22T14:13:28;14.93;;;8.80;;
65691;SDS011;52411;52.716;6.696;2023-06-22T14:15:53;17.40;;;8.63;;
65691;SDS011;52411;52.716;6.696;2023-06-22T14:18:19;15.23;;;8.60;;
65691;SDS011;52411;52.716;6.696;2023-06-22T14:20:47;11.70;;;8.25;;
65691;SDS011;52411;52.716;6.696;2023-06-22T14:23:13;12.30;;;9.00;;
65691;SDS011;52411;52.716;6.696;2023-06-22T14:25:39;12.32;;;9.15;;
65691;SDS011;52411;52.716;6.696;2023-06-22T14:28:05;11.15;;;9.00;;
65691;SDS011;52411;52.716;6.696;2023-06-22T14:30:31;11.70;;;9.30;;
65691;SDS011;52411;52.716;6.696;2023-06-22T14:32:56;13.45;;;9.40;;
65691;SDS011;52411;52.716;6.696;2023-06-22T14:35:22;12.55;;;9.73;;
65691;SDS011;52411;52.716;6.696;2023-06-22T14:37:49;16.02;;;10.38;;
65691;SDS011;52411;52.716;6.696;2023-06-22T14:40:15;13.52;;;10.43;;
65691;SDS011;52411;52.716;6.696;2023-06-22T14:42:40;11.70;;;9.93;;
65691;SDS011;52411;52.716;6.696;2023-06-22T14:45:06;9.35;;;8.35;;
65691;SDS011;52411;52.716;6.696;2023-06-22T14:47:32;15.07;;;10.40;;
65691;SDS011;52411;52.716;6.696;2023-06-22T14:49:58;13.90;;;10.45;;
65691;SDS011;52411;52.716;6.696;2023-06-22T14:52:25;12.68;;;10.98;;
65691;SDS011;52411;52.716;6.696;2023-06-22T14:54:51;13.55;;;11.63;;
65691;SDS011;52411;52.716;6.696;2023-06-22T14:57:17;13.07;;;10.95;;
65691;SDS011;52411;52.716;6.696;2023-06-22T14:59:45;14.13;;;11.63;;
65691;SDS011;52411;52.716;6.696;2023-06-22T15:02:12;14.13;;;11.48;;
65691;SDS011;52411;52.716;6.696;2023-06-22T15:04:38;16.08;;;11.68;;
65691;SDS011;52411;52.716;6.696;2023-06-22T15:07:03;13.68;;;11.55;;
65691;SDS011;52411;52.716;6.696;2023-06-22T15:09:29;13.38;;;11.77;;
65691;SDS011;52411;52.716;6.696;2023-06-22T15:11:55;12.50;;;11.18;;
65691;SDS011;52411;52.716;6.696;2023-06-22T15:14:20;15.35;;;11.93;;
65691;SDS011;52411;52.716;6.696;2023-06-22T15:16:46;15.73;;;11.40;;
65691;SDS011;52411;52.716;6.696;2023-06-22T15:19:12;12.68;;;10.98;;
65691;SDS011;52411;52.716;6.696;2023-06-22T15:21:38;14.70;;;10.18;;
65691;SDS011;52411;52.716;6.696;2023-06-22T15:24:03;13.32;;;10.38;;
65691;SDS011;52411;52.716;6.696;2023-06-22T15:26:29;14.63;;;11.95;;